createdAt,value
2018-12-19T00:01:15.592Z,5.17
2018-12-19T00:03:42.646Z,5.25
2018-12-19T00:06:09.814Z,4.70
2018-12-19T00:08:36.882Z,5.70
2018-12-19T00:11:03.955Z,5.57
2018-12-19T00:13:31.018Z,4.97
2018-12-19T00:15:58.094Z,5.07
2018-12-19T00:18:25.158Z,5.10
2018-12-19T00:20:52.314Z,5.17
2018-12-19T00:23:19.363Z,5.10
2018-12-19T00:25:46.430Z,4.80
2018-12-19T00:28:13.594Z,4.67
2018-12-19T00:30:40.641Z,5.20
2018-12-19T00:33:07.738Z,4.97
2018-12-19T00:35:34.790Z,5.20
2018-12-19T00:38:01.854Z,4.73
2018-12-19T00:40:29.030Z,5.27
2018-12-19T00:42:56.122Z,5.23
2018-12-19T00:45:23.235Z,5.50
2018-12-19T00:47:50.286Z,5.13
2018-12-19T00:50:17.338Z,5.33
2018-12-19T00:52:44.430Z,5.27
2018-12-19T00:55:11.694Z,5.47
2018-12-19T00:57:38.750Z,5.67
2018-12-19T01:00:07.820Z,4.90
2018-12-19T01:02:35.011Z,5.10
2018-12-19T01:05:02.179Z,5.30
2018-12-19T01:07:29.346Z,4.80
2018-12-19T01:09:56.458Z,5.17
2018-12-19T01:12:23.620Z,5.00
2018-12-19T01:14:50.703Z,5.07
2018-12-19T01:17:17.868Z,5.10
2018-12-19T01:19:44.962Z,4.60
2018-12-19T01:22:12.122Z,5.13
2018-12-19T01:24:39.279Z,4.43
2018-12-19T01:27:06.330Z,4.13
2018-12-19T01:29:33.370Z,3.80
2018-12-19T01:32:00.424Z,3.30
2018-12-19T01:34:27.486Z,3.53
2018-12-19T01:36:54.767Z,3.43
2018-12-19T01:39:22.533Z,3.70
2018-12-19T01:41:50.058Z,3.50
2018-12-19T01:44:17.124Z,3.23
2018-12-19T01:46:44.174Z,3.77
2018-12-19T01:49:11.234Z,3.60
2018-12-19T01:51:38.509Z,3.83
2018-12-19T01:54:05.675Z,3.60
2018-12-19T01:56:32.826Z,3.50
2018-12-19T01:58:59.898Z,4.00
2018-12-19T02:01:27.062Z,3.40
2018-12-19T02:03:54.107Z,3.73
2018-12-19T02:06:21.174Z,4.30
2018-12-19T02:08:48.246Z,3.37
2018-12-19T02:11:15.311Z,3.57
2018-12-19T02:13:42.484Z,3.63
2018-12-19T02:16:09.646Z,3.70
2018-12-19T02:18:36.715Z,4.13
2018-12-19T02:21:03.990Z,3.50
2018-12-19T02:23:31.138Z,3.70
2018-12-19T02:25:58.186Z,3.70
2018-12-19T02:28:25.234Z,3.80
2018-12-19T02:30:52.391Z,3.87
2018-12-19T02:33:19.547Z,3.53
2018-12-19T02:35:46.820Z,3.83
2018-12-19T02:38:13.998Z,3.80
2018-12-19T02:40:41.062Z,3.73
2018-12-19T02:43:08.118Z,3.60
2018-12-19T02:45:35.288Z,4.13
2018-12-19T02:48:02.627Z,3.80
2018-12-19T02:50:29.687Z,3.57
2018-12-19T02:52:56.847Z,3.43
2018-12-19T02:55:23.913Z,3.80
2018-12-19T02:57:50.971Z,3.90
2018-12-19T03:00:18.139Z,3.80
2018-12-19T03:02:45.307Z,3.70
2018-12-19T03:05:12.491Z,3.57
2018-12-19T03:07:39.553Z,3.70
2018-12-19T03:10:06.826Z,3.40
2018-12-19T03:12:34.003Z,3.90
2018-12-19T03:15:01.079Z,3.80
2018-12-19T03:17:28.234Z,3.87
2018-12-19T03:19:55.395Z,3.63
2018-12-19T03:22:22.542Z,3.83
2018-12-19T03:24:49.578Z,3.70
2018-12-19T03:27:16.742Z,3.80
2018-12-19T03:29:43.924Z,4.00
2018-12-19T03:32:10.979Z,3.57
2018-12-19T03:34:38.144Z,3.80
2018-12-19T03:37:05.307Z,3.93
2018-12-19T03:39:32.358Z,3.67
2018-12-19T03:41:59.419Z,3.77
2018-12-19T03:44:26.731Z,3.80
2018-12-19T03:46:53.882Z,3.63
2018-12-19T03:49:21.161Z,3.77
2018-12-19T03:51:48.843Z,3.90
2018-12-19T03:54:16.715Z,3.70
2018-12-19T03:56:44.238Z,4.17
2018-12-19T03:59:11.299Z,3.60
2018-12-19T04:01:38.372Z,3.77
2018-12-19T04:04:05.656Z,3.77
2018-12-19T04:06:32.724Z,3.90
2018-12-19T04:08:59.782Z,4.20
2018-12-19T04:11:26.938Z,3.93
2018-12-19T04:13:54.106Z,4.47
2018-12-19T04:16:21.370Z,4.80
2018-12-19T04:18:48.434Z,4.50
2018-12-19T04:21:15.485Z,4.50
2018-12-19T04:23:42.536Z,4.87
2018-12-19T04:26:09.663Z,5.23
2018-12-19T04:28:36.722Z,4.77
2018-12-19T04:31:04.007Z,5.10
2018-12-19T04:33:31.191Z,5.33
2018-12-19T04:35:58.358Z,5.30
2018-12-19T04:38:25.631Z,4.50
2018-12-19T04:40:52.682Z,5.17
2018-12-19T04:43:19.750Z,5.13
2018-12-19T04:45:46.926Z,6.00
2018-12-19T04:48:14.086Z,5.40
2018-12-19T04:50:41.259Z,5.30
2018-12-19T04:53:08.328Z,5.80
2018-12-19T04:55:35.531Z,6.03
2018-12-19T04:58:02.624Z,6.20
2018-12-19T05:00:29.684Z,5.83
2018-12-19T05:02:56.742Z,6.17
2018-12-19T05:05:23.811Z,5.93
2018-12-19T05:07:51.098Z,6.67
2018-12-19T05:10:18.374Z,6.73
2018-12-19T05:12:45.443Z,6.63
2018-12-19T05:15:12.520Z,6.63
2018-12-19T05:17:39.695Z,6.23
2018-12-19T05:20:08.892Z,6.60
2018-12-19T05:22:35.947Z,7.07
2018-12-19T05:25:04.094Z,7.13
2018-12-19T05:27:31.150Z,7.07
2018-12-19T05:29:58.322Z,7.27
2018-12-19T05:32:25.374Z,7.13
2018-12-19T05:34:52.431Z,7.50
2018-12-19T05:37:19.598Z,7.83
2018-12-19T05:39:46.663Z,8.67
2018-12-19T05:42:13.726Z,7.87
2018-12-19T05:44:40.828Z,8.47
2018-12-19T05:47:09.163Z,8.33
2018-12-19T05:49:36.435Z,8.83
2018-12-19T05:52:03.630Z,8.30
2018-12-19T05:54:30.687Z,9.40
2018-12-19T05:56:57.754Z,9.20
2018-12-19T05:59:25.027Z,9.63
2018-12-19T06:01:52.082Z,10.67
2018-12-19T06:04:19.253Z,9.80
2018-12-19T06:06:46.412Z,10.05
2018-12-19T06:09:13.587Z,10.43
2018-12-19T06:11:40.800Z,10.10
2018-12-19T06:14:07.918Z,9.60
2018-12-19T06:16:35.104Z,10.47
2018-12-19T06:19:02.390Z,10.57
2018-12-19T06:21:29.469Z,10.47
2018-12-19T06:23:56.522Z,10.63
2018-12-19T06:26:23.696Z,10.63
2018-12-19T06:28:50.905Z,10.90
2018-12-19T06:31:18.023Z,10.60
2018-12-19T06:33:45.543Z,11.27
2018-12-19T06:36:12.834Z,10.77
2018-12-19T06:38:39.883Z,10.67
2018-12-19T06:41:07.149Z,11.17
2018-12-19T06:43:34.219Z,10.90
2018-12-19T06:46:01.599Z,11.10
2018-12-19T06:48:28.663Z,11.20
2018-12-19T06:50:55.711Z,12.07
2018-12-19T06:53:22.763Z,12.13
2018-12-19T06:55:49.819Z,12.40
2018-12-19T06:58:16.884Z,11.93
2018-12-19T07:00:43.936Z,12.03
2018-12-19T07:03:11.007Z,13.20
2018-12-19T07:05:38.066Z,12.00
2018-12-19T07:08:05.195Z,11.93
2018-12-19T07:10:32.250Z,11.73
2018-12-19T07:12:59.418Z,12.70
2018-12-19T07:15:26.587Z,11.57
2018-12-19T07:17:53.763Z,11.87
2018-12-19T07:20:20.935Z,11.03
2018-12-19T07:22:47.998Z,12.67
2018-12-19T07:25:15.154Z,10.87
2018-12-19T07:27:42.314Z,12.13
2018-12-19T07:30:15.983Z,10.00
2018-12-19T07:32:43.167Z,10.57
2018-12-19T07:35:10.240Z,10.10
2018-12-19T07:37:37.306Z,9.97
2018-12-19T07:40:04.735Z,10.57
2018-12-19T07:42:31.903Z,10.30
2018-12-19T07:44:58.950Z,10.37
2018-12-19T07:47:26.114Z,10.70
2018-12-19T07:49:53.183Z,10.00
2018-12-19T07:52:20.247Z,9.67
2018-12-19T07:54:47.295Z,9.47
2018-12-19T07:57:14.462Z,9.20
2018-12-19T07:59:41.629Z,9.60
2018-12-19T08:02:08.797Z,9.17
2018-12-19T08:04:36.470Z,9.60
2018-12-19T08:07:03.655Z,9.30
2018-12-19T08:09:30.766Z,9.40
2018-12-19T08:11:57.987Z,10.85
2018-12-19T08:14:25.056Z,9.07
2018-12-19T08:16:52.223Z,9.07
2018-12-19T08:19:19.279Z,8.67
2018-12-19T08:21:46.455Z,8.53
2018-12-19T08:24:13.523Z,8.30
2018-12-19T08:26:40.699Z,8.27
2018-12-19T08:29:07.767Z,7.13
2018-12-19T08:31:34.958Z,7.80
2018-12-19T08:34:02.351Z,8.57
2018-12-19T08:36:29.418Z,8.33
2018-12-19T08:38:56.487Z,8.10
2018-12-19T08:41:23.547Z,8.13
2018-12-19T08:43:50.725Z,8.00
2018-12-19T08:46:17.899Z,7.63
2018-12-19T08:48:45.211Z,8.00
2018-12-19T08:51:12.394Z,7.03
2018-12-19T08:53:39.527Z,6.80
2018-12-19T08:56:06.703Z,6.50
2018-12-19T08:58:33.784Z,6.40
2018-12-19T09:01:00.843Z,6.53
2018-12-19T09:03:27.914Z,6.33
2018-12-19T09:05:54.990Z,5.80
2018-12-19T09:08:22.070Z,6.43
2018-12-19T09:10:49.147Z,5.90
2018-12-19T09:13:16.214Z,5.70
2018-12-19T09:15:48.950Z,5.90
2018-12-19T09:18:16.004Z,6.00
2018-12-19T09:20:45.452Z,5.10
2018-12-19T09:23:12.535Z,5.33
2018-12-19T09:25:39.594Z,5.27
2018-12-19T09:28:08.179Z,5.00
2018-12-19T09:30:35.378Z,4.97
2018-12-19T09:33:02.677Z,5.20
2018-12-19T09:35:29.765Z,5.00
2018-12-19T09:37:56.838Z,4.47
2018-12-19T09:40:24.024Z,4.13
2018-12-19T09:42:51.091Z,4.73
2018-12-19T09:45:18.180Z,4.30
2018-12-19T09:47:45.248Z,4.40
2018-12-19T09:50:12.467Z,4.23
2018-12-19T09:52:39.570Z,3.97
2018-12-19T09:55:06.732Z,3.43
2018-12-19T09:57:34.037Z,4.07
2018-12-19T10:00:01.227Z,4.30
2018-12-19T10:02:28.346Z,4.40
2018-12-19T10:04:55.523Z,3.93
2018-12-19T10:07:22.603Z,3.90
2018-12-19T10:09:49.674Z,4.07
2018-12-19T10:12:16.846Z,4.00
2018-12-19T10:14:43.905Z,3.53
2018-12-19T10:17:10.970Z,3.80
2018-12-19T10:19:38.154Z,4.10
2018-12-19T10:22:05.195Z,3.80
2018-12-19T10:24:38.198Z,3.70
2018-12-19T10:27:05.482Z,4.37
2018-12-19T10:29:32.562Z,3.30
2018-12-19T10:31:59.619Z,3.67
2018-12-19T10:34:26.694Z,3.20
2018-12-19T10:36:53.778Z,3.07
2018-12-19T10:39:20.966Z,3.20
2018-12-19T10:41:48.040Z,2.93
2018-12-19T10:44:15.135Z,3.03
2018-12-19T10:46:42.415Z,3.00
2018-12-19T10:49:09.599Z,3.10
2018-12-19T10:51:36.646Z,2.80
2018-12-19T10:54:03.982Z,2.80
2018-12-19T10:56:31.134Z,2.70
2018-12-19T10:58:58.356Z,2.70
2018-12-19T11:01:25.524Z,2.60
2018-12-19T11:03:52.610Z,2.90
2018-12-19T11:06:19.679Z,2.40
2018-12-19T11:08:46.743Z,3.00
2018-12-19T11:11:14.016Z,2.37
2018-12-19T11:13:41.062Z,2.47
2018-12-19T11:16:08.154Z,2.33
2018-12-19T11:18:35.347Z,2.50
2018-12-19T11:21:02.645Z,2.90
2018-12-19T11:23:29.842Z,2.50
2018-12-19T11:25:57.116Z,2.60
2018-12-19T11:28:24.194Z,2.70
2018-12-19T11:30:51.362Z,2.73
2018-12-19T11:33:18.443Z,2.80
2018-12-19T11:35:45.612Z,2.57
2018-12-19T11:38:12.821Z,2.37
2018-12-19T11:40:39.886Z,2.50
2018-12-19T11:43:06.957Z,2.60
2018-12-19T11:45:34.123Z,2.97
2018-12-19T11:48:01.345Z,2.90
2018-12-19T11:50:28.507Z,2.73
2018-12-19T11:52:55.662Z,2.27
2018-12-19T11:55:22.835Z,2.80
2018-12-19T11:57:49.979Z,2.80
2018-12-19T12:00:17.151Z,2.43
2018-12-19T12:02:44.210Z,2.60
2018-12-19T12:05:11.286Z,2.30
2018-12-19T12:07:38.471Z,2.30
2018-12-19T12:10:07.111Z,2.83
2018-12-19T12:12:34.969Z,2.50
2018-12-19T12:15:02.140Z,2.37
2018-12-19T12:17:29.191Z,2.27
2018-12-19T12:19:56.347Z,2.20
2018-12-19T12:22:23.398Z,2.40
2018-12-19T12:24:50.550Z,2.40
2018-12-19T12:27:17.715Z,2.57
2018-12-19T12:29:44.887Z,2.70
2018-12-19T12:32:11.943Z,2.40
2018-12-19T12:34:38.994Z,2.67
2018-12-19T12:37:06.162Z,2.27
2018-12-19T12:39:33.235Z,2.33
2018-12-19T12:42:00.500Z,2.60
2018-12-19T12:44:28.192Z,2.43
2018-12-19T12:46:55.243Z,2.50
2018-12-19T12:49:22.322Z,2.40
2018-12-19T12:51:49.392Z,2.87
2018-12-19T12:54:16.666Z,2.60
2018-12-19T12:56:43.719Z,2.63
2018-12-19T12:59:10.890Z,2.57
2018-12-19T13:01:38.066Z,2.57
2018-12-19T13:04:05.129Z,2.33
2018-12-19T13:06:32.190Z,3.07
2018-12-19T13:08:59.251Z,2.87
2018-12-19T13:11:26.313Z,3.10
2018-12-19T13:13:53.502Z,2.20
2018-12-19T13:16:20.574Z,2.43
2018-12-19T13:18:47.734Z,2.77
2018-12-19T13:21:14.794Z,2.90
2018-12-19T13:23:41.847Z,2.50
2018-12-19T13:26:09.006Z,2.60
2018-12-19T13:28:36.227Z,2.60
2018-12-19T13:31:03.494Z,2.70
2018-12-19T13:33:30.546Z,2.70
2018-12-19T13:35:57.627Z,2.30
2018-12-19T13:38:24.786Z,2.70
2018-12-19T13:40:51.854Z,2.73
2018-12-19T13:43:18.946Z,3.40
2018-12-19T13:45:45.996Z,2.33
2018-12-19T13:48:13.090Z,2.67
2018-12-19T13:50:40.267Z,2.80
2018-12-19T13:53:07.444Z,2.73
2018-12-19T13:55:34.606Z,2.67
2018-12-19T13:58:07.008Z,3.00
2018-12-19T14:00:30.841Z,2.90
2018-12-19T14:02:57.907Z,2.93
2018-12-19T14:05:25.079Z,2.90
2018-12-19T14:07:52.246Z,2.93
2018-12-19T14:10:19.297Z,3.10
2018-12-19T14:12:46.359Z,3.50
2018-12-19T14:15:13.534Z,3.07
2018-12-19T14:17:40.591Z,2.80
2018-12-19T14:20:08.008Z,2.97
2018-12-19T14:22:35.162Z,2.80
2018-12-19T14:25:02.435Z,2.67
2018-12-19T14:27:29.501Z,2.90
2018-12-19T14:29:56.578Z,2.93
2018-12-19T14:32:23.743Z,2.80
2018-12-19T14:34:50.915Z,2.70
2018-12-19T14:37:17.983Z,2.90
2018-12-19T14:39:45.052Z,2.60
2018-12-19T14:42:18.769Z,2.83
2018-12-19T14:44:41.253Z,2.97
2018-12-19T14:47:09.166Z,2.80
2018-12-19T14:49:36.867Z,2.40
2018-12-19T14:52:03.927Z,2.60
2018-12-19T14:54:31.086Z,2.90
2018-12-19T14:56:58.251Z,2.57
2018-12-19T14:59:25.514Z,2.70
2018-12-19T15:01:52.575Z,2.80
2018-12-19T15:04:19.622Z,2.80
2018-12-19T15:06:46.790Z,2.80
2018-12-19T15:09:14.071Z,2.63
2018-12-19T15:11:41.266Z,2.60
2018-12-19T15:14:08.330Z,2.93
2018-12-19T15:16:35.487Z,2.87
2018-12-19T15:19:02.782Z,2.67
2018-12-19T15:21:30.062Z,2.60
2018-12-19T15:23:57.111Z,3.03
2018-12-19T15:26:24.159Z,2.53
2018-12-19T15:28:51.369Z,2.80
2018-12-19T15:31:18.558Z,3.00
2018-12-19T15:33:45.727Z,2.90
2018-12-19T15:36:13.410Z,2.80
2018-12-19T15:38:40.479Z,2.90
2018-12-19T15:41:07.638Z,3.00
2018-12-19T15:43:34.725Z,3.00
2018-12-19T15:46:01.805Z,2.73
2018-12-19T15:48:28.864Z,3.00
2018-12-19T15:50:55.920Z,3.10
2018-12-19T15:53:23.209Z,2.97
2018-12-19T15:55:50.273Z,3.00
2018-12-19T15:58:17.446Z,2.97
2018-12-19T16:00:44.510Z,3.27
2018-12-19T16:03:11.680Z,3.23
2018-12-19T16:05:38.851Z,3.37
2018-12-19T16:08:05.904Z,3.53
2018-12-19T16:10:32.975Z,3.90
2018-12-19T16:13:00.040Z,3.37
2018-12-19T16:15:27.206Z,3.50
2018-12-19T16:17:54.367Z,3.30
2018-12-19T16:20:21.429Z,3.33
2018-12-19T16:22:48.488Z,3.30
2018-12-19T16:25:15.642Z,3.27
2018-12-19T16:27:42.694Z,3.40
2018-12-19T16:30:15.391Z,3.40
2018-12-19T16:32:42.456Z,3.67
2018-12-19T16:35:09.718Z,3.67
2018-12-19T16:37:36.880Z,3.10
2018-12-19T16:40:04.282Z,4.07
2018-12-19T16:42:31.351Z,4.10
2018-12-19T16:44:58.482Z,4.10
2018-12-19T16:47:25.562Z,3.80
2018-12-19T16:49:52.731Z,4.27
2018-12-19T16:52:19.851Z,4.00
2018-12-19T16:54:46.898Z,4.23
2018-12-19T16:57:14.170Z,4.30
2018-12-19T16:59:41.334Z,4.83
2018-12-19T17:02:08.398Z,4.50
2018-12-19T17:04:35.480Z,4.60
2018-12-19T17:07:02.866Z,4.57
2018-12-19T17:09:30.042Z,5.07
2018-12-19T17:11:57.107Z,4.70
2018-12-19T17:14:24.276Z,4.43
2018-12-19T17:16:51.356Z,4.93
2018-12-19T17:19:18.564Z,4.63
2018-12-19T17:21:45.722Z,4.80
2018-12-19T17:24:12.781Z,4.60
2018-12-19T17:26:39.939Z,4.87
2018-12-19T17:29:07.101Z,5.17
2018-12-19T17:31:34.158Z,4.33
2018-12-19T17:34:01.211Z,4.73
2018-12-19T17:36:28.282Z,4.80
2018-12-19T17:38:55.470Z,4.60
2018-12-19T17:41:22.522Z,5.03
2018-12-19T17:43:49.635Z,5.33
2018-12-19T17:46:16.817Z,5.17
2018-12-19T17:48:44.087Z,5.77
2018-12-19T17:51:11.303Z,4.93
2018-12-19T17:53:38.362Z,6.70
2018-12-19T17:56:05.638Z,6.50
2018-12-19T17:58:32.682Z,5.73
2018-12-19T18:00:59.974Z,6.20
2018-12-19T18:03:27.026Z,5.50
2018-12-19T18:05:54.198Z,5.67
2018-12-19T18:08:21.253Z,5.40
2018-12-19T18:10:48.522Z,5.87
2018-12-19T18:13:15.803Z,5.80
2018-12-19T18:15:43.086Z,7.93
2018-12-19T18:18:10.339Z,14.37
2018-12-19T18:20:37.611Z,18.03
2018-12-19T18:23:04.689Z,13.03
2018-12-19T18:25:31.726Z,9.67
2018-12-19T18:27:58.780Z,8.57
2018-12-19T18:30:27.158Z,8.23
2018-12-19T18:32:54.223Z,7.97
2018-12-19T18:35:21.500Z,7.73
2018-12-19T18:37:48.550Z,7.80
2018-12-19T18:40:15.834Z,6.73
2018-12-19T18:42:42.890Z,6.50
2018-12-19T18:45:12.081Z,6.43
2018-12-19T18:47:39.215Z,6.27
2018-12-19T18:50:07.007Z,7.20
2018-12-19T18:52:34.159Z,7.13
2018-12-19T18:55:01.322Z,6.97
2018-12-19T18:57:28.377Z,7.07
2018-12-19T18:59:55.430Z,7.20
2018-12-19T19:02:22.490Z,6.93
2018-12-19T19:04:50.023Z,6.90
2018-12-19T19:07:17.127Z,7.33
2018-12-19T19:09:44.422Z,6.47
2018-12-19T19:12:11.562Z,6.70
2018-12-19T19:14:38.721Z,7.17
2018-12-19T19:17:05.799Z,7.07
2018-12-19T19:19:32.850Z,6.60
2018-12-19T19:21:59.927Z,6.90
2018-12-19T19:24:27.090Z,7.23
2018-12-19T19:26:54.243Z,6.20
2018-12-19T19:29:21.479Z,6.37
2018-12-19T19:31:48.538Z,6.80
2018-12-19T19:34:15.597Z,7.40
2018-12-19T19:36:42.759Z,7.30
2018-12-19T19:39:09.951Z,8.20
2018-12-19T19:41:37.068Z,7.23
2018-12-19T19:44:04.407Z,7.93
2018-12-19T19:46:31.598Z,7.77
2018-12-19T19:48:58.868Z,8.60
2018-12-19T19:51:25.913Z,7.80
2018-12-19T19:53:52.967Z,7.93
2018-12-19T19:56:20.063Z,7.47
2018-12-19T19:58:47.143Z,7.83
2018-12-19T20:01:14.303Z,8.33
2018-12-19T20:03:41.467Z,8.93
2018-12-19T20:06:08.542Z,8.23
2018-12-19T20:08:35.751Z,8.00
2018-12-19T20:11:03.039Z,8.55
2018-12-19T20:13:33.178Z,8.53
2018-12-19T20:15:59.286Z,8.87
2018-12-19T20:18:26.449Z,8.27
2018-12-19T20:20:53.517Z,8.87
2018-12-19T20:23:20.691Z,8.77
2018-12-19T20:25:47.739Z,9.10
2018-12-19T20:28:14.890Z,9.33
2018-12-19T20:30:41.982Z,9.10
2018-12-19T20:33:09.073Z,9.57
2018-12-19T20:35:36.242Z,9.03
2018-12-19T20:38:03.422Z,8.97
2018-12-19T20:40:30.693Z,10.13
2018-12-19T20:42:57.806Z,9.27
2018-12-19T20:45:25.086Z,8.67
2018-12-19T20:47:52.152Z,9.20
2018-12-19T20:50:19.222Z,9.90
2018-12-19T20:52:46.292Z,8.60
2018-12-19T20:55:13.517Z,9.13
2018-12-19T20:57:40.700Z,9.50
2018-12-19T21:00:08.049Z,9.70
2018-12-19T21:02:35.311Z,9.30
2018-12-19T21:05:02.597Z,8.63
2018-12-19T21:07:29.778Z,9.30
2018-12-19T21:09:56.835Z,9.13
2018-12-19T21:12:23.902Z,9.90
2018-12-19T21:14:50.962Z,10.27
2018-12-19T21:17:23.983Z,11.40
2018-12-19T21:19:51.163Z,9.97
2018-12-19T21:22:18.223Z,10.37
2018-12-19T21:24:45.278Z,11.18
2018-12-19T21:27:12.558Z,11.33
2018-12-19T21:29:39.726Z,11.60
2018-12-19T21:32:07.010Z,10.83
2018-12-19T21:34:34.170Z,10.27
2018-12-19T21:37:02.144Z,11.10
2018-12-19T21:39:29.762Z,10.77
2018-12-19T21:41:56.875Z,11.77
2018-12-19T21:44:24.146Z,10.00
2018-12-19T21:46:51.367Z,10.57
2018-12-19T21:49:18.474Z,10.43
2018-12-19T21:51:45.665Z,10.73
2018-12-19T21:54:12.839Z,10.37
2018-12-19T21:56:40.138Z,10.37
2018-12-19T21:59:07.212Z,11.53
2018-12-19T22:01:34.422Z,11.30
2018-12-19T22:04:01.750Z,10.93
2018-12-19T22:06:28.902Z,10.77
2018-12-19T22:08:56.165Z,11.07
2018-12-19T22:11:23.386Z,9.97
2018-12-19T22:13:50.590Z,11.17
2018-12-19T22:16:23.608Z,9.83
2018-12-19T22:18:50.662Z,9.90
2018-12-19T22:21:17.839Z,10.87
2018-12-19T22:23:45.011Z,11.13
2018-12-19T22:26:12.190Z,11.27
2018-12-19T22:28:39.538Z,11.60
2018-12-19T22:31:06.825Z,11.73
2018-12-19T22:33:33.999Z,11.30
2018-12-19T22:36:01.460Z,10.87
2018-12-19T22:38:28.555Z,10.77
2018-12-19T22:40:55.822Z,10.50
2018-12-19T22:43:23.007Z,10.37
2018-12-19T22:45:50.305Z,10.47
2018-12-19T22:48:17.565Z,10.07
2018-12-19T22:50:44.880Z,9.93
2018-12-19T22:53:12.150Z,10.27
2018-12-19T22:55:39.373Z,10.23
2018-12-19T22:58:06.690Z,9.63
2018-12-19T23:00:39.652Z,9.23
2018-12-19T23:03:06.953Z,9.90
2018-12-19T23:05:40.252Z,9.80
2018-12-19T23:08:07.303Z,9.50
2018-12-19T23:10:34.627Z,9.60
2018-12-19T23:13:02.606Z,9.50
2018-12-19T23:15:29.781Z,9.27
2018-12-19T23:18:02.615Z,9.20
2018-12-19T23:20:29.883Z,9.13
2018-12-19T23:22:57.106Z,9.57
2018-12-19T23:25:24.426Z,9.93
2018-12-19T23:27:51.789Z,9.63
2018-12-19T23:30:21.238Z,8.37
2018-12-19T23:32:48.375Z,8.77
2018-12-19T23:35:15.560Z,9.17
2018-12-19T23:37:42.828Z,8.80
2018-12-19T23:40:10.016Z,8.50
2018-12-19T23:42:37.423Z,8.17
2018-12-19T23:45:04.858Z,8.07
2018-12-19T23:47:32.026Z,7.90
2018-12-19T23:49:59.201Z,8.17
2018-12-19T23:52:26.454Z,7.10
2018-12-19T23:54:53.636Z,7.00
2018-12-19T23:57:20.858Z,7.20
2018-12-19T23:59:48.066Z,6.90
